createdAt,value
2023-07-31T00:00:57.029Z,97035.13
2023-07-31T00:03:26.185Z,97028.13
2023-07-31T00:05:54.207Z,97024.13
2023-07-31T00:08:21.862Z,97029.22
2023-07-31T00:10:49.508Z,97031.63
2023-07-31T00:13:17.133Z,97029.06
2023-07-31T00:15:44.758Z,97026.03
2023-07-31T00:18:12.426Z,97023.00
2023-07-31T00:20:41.790Z,97030.34
2023-07-31T00:23:09.392Z,97039.97
2023-07-31T00:25:37.031Z,97034.59
2023-07-31T00:28:04.850Z,97040.41
2023-07-31T00:30:32.531Z,97044.56
2023-07-31T00:33:00.216Z,97039.34
2023-07-31T00:35:27.830Z,97031.47
2023-07-31T00:37:56.782Z,97030.78
2023-07-31T00:40:24.360Z,97028.38
2023-07-31T00:42:51.931Z,97032.66
2023-07-31T00:45:19.623Z,97030.41
2023-07-31T00:47:47.439Z,97029.22
2023-07-31T00:50:16.795Z,97024.19
2023-07-31T00:52:44.421Z,97015.91
2023-07-31T00:55:13.484Z,97013.31
2023-07-31T00:57:43.543Z,97022.56
2023-07-31T01:00:12.478Z,97018.75
2023-07-31T01:02:40.538Z,97021.22
2023-07-31T01:05:08.774Z,97016.22
2023-07-31T01:07:43.407Z,97015.44
2023-07-31T01:10:18.867Z,97012.81
2023-07-31T01:12:47.694Z,97002.47
2023-07-31T01:15:16.251Z,97005.56
2023-07-31T01:17:44.551Z,96999.78
2023-07-31T01:20:14.796Z,97001.25
2023-07-31T01:23:05.716Z,97002.53
2023-07-31T01:25:56.812Z,97002.19
2023-07-31T01:28:29.971Z,97001.59
2023-07-31T01:31:02.346Z,97001.16
2023-07-31T01:33:30.816Z,96997.69
2023-07-31T01:35:59.106Z,96993.34
2023-07-31T01:38:26.802Z,96996.22
2023-07-31T01:40:55.986Z,96991.53
2023-07-31T01:43:24.250Z,96987.16
2023-07-31T01:45:51.910Z,96994.91
2023-07-31T01:48:19.836Z,96989.31
2023-07-31T01:50:47.425Z,96986.91
2023-07-31T01:53:15.642Z,96978.59
2023-07-31T01:55:43.240Z,96983.19
2023-07-31T01:58:12.186Z,96973.66
2023-07-31T02:00:40.694Z,96971.22
2023-07-31T02:03:08.391Z,96968.53
2023-07-31T02:05:36.188Z,96972.00
2023-07-31T02:08:05.513Z,96968.88
2023-07-31T02:10:34.230Z,96971.44
2023-07-31T02:13:01.822Z,96968.09
2023-07-31T02:15:30.755Z,96955.81
2023-07-31T02:17:58.485Z,96954.22
2023-07-31T02:20:26.380Z,96952.78
2023-07-31T02:22:53.973Z,96960.09
2023-07-31T02:25:21.571Z,96956.59
2023-07-31T02:27:49.158Z,96953.47
2023-07-31T02:30:16.749Z,96955.19
2023-07-31T02:32:45.751Z,96954.31
2023-07-31T02:35:16.399Z,96956.44
2023-07-31T02:37:44.222Z,96953.00
2023-07-31T02:40:12.595Z,96953.34
2023-07-31T02:42:40.178Z,96948.31
2023-07-31T02:45:09.014Z,96948.31
2023-07-31T02:47:36.647Z,96951.75
2023-07-31T02:50:06.293Z,96958.25
2023-07-31T02:52:33.859Z,96947.53
2023-07-31T02:55:01.471Z,96954.44
2023-07-31T02:57:29.072Z,96952.72
2023-07-31T02:59:56.688Z,96951.84
2023-07-31T03:02:24.520Z,96952.59
2023-07-31T03:04:52.235Z,96954.94
2023-07-31T03:07:23.325Z,96951.84
2023-07-31T03:09:50.953Z,96948.94
2023-07-31T03:12:18.624Z,96954.97
2023-07-31T03:14:46.463Z,96946.84
2023-07-31T03:17:14.055Z,96960.22
2023-07-31T03:19:41.653Z,96953.66
2023-07-31T03:22:09.282Z,96956.34
2023-07-31T03:24:38.244Z,96961.13
2023-07-31T03:27:06.685Z,96957.25
2023-07-31T03:29:34.300Z,96952.78
2023-07-31T03:32:01.963Z,96951.16
2023-07-31T03:34:29.611Z,96954.28
2023-07-31T03:36:57.279Z,96955.13
2023-07-31T03:39:25.086Z,96949.44
2023-07-31T03:41:54.036Z,96959.47
2023-07-31T03:44:21.664Z,96966.38
2023-07-31T03:46:49.420Z,96965.94
2023-07-31T03:49:17.050Z,96970.41
2023-07-31T03:51:44.836Z,96970.84
2023-07-31T03:54:12.566Z,96973.06
2023-07-31T03:56:40.461Z,96987.13
2023-07-31T03:59:09.667Z,96986.81
2023-07-31T04:01:37.283Z,96984.22
2023-07-31T04:04:05.192Z,96974.31
2023-07-31T04:06:32.788Z,96979.66
2023-07-31T04:09:00.397Z,96977.97
2023-07-31T04:11:28.106Z,96980.44
2023-07-31T04:13:55.723Z,96982.22
2023-07-31T04:16:24.720Z,96983.91
2023-07-31T04:18:52.333Z,96984.22
2023-07-31T04:21:20.012Z,96988.47
2023-07-31T04:23:47.601Z,96991.59
2023-07-31T04:26:15.194Z,96992.94
2023-07-31T04:28:42.825Z,96986.56
2023-07-31T04:31:10.507Z,96985.66
2023-07-31T04:33:39.449Z,96986.44
2023-07-31T04:36:07.134Z,96993.13
2023-07-31T04:38:34.784Z,96987.63
2023-07-31T04:41:02.464Z,96988.53
2023-07-31T04:43:30.073Z,96978.50
2023-07-31T04:45:57.767Z,96970.91
2023-07-31T04:48:25.449Z,96974.78
2023-07-31T04:50:54.388Z,96974.66
2023-07-31T04:53:22.137Z,96979.69
2023-07-31T04:55:49.750Z,96982.81
2023-07-31T04:58:17.328Z,96983.56
2023-07-31T05:00:44.891Z,96979.00
2023-07-31T05:03:12.882Z,96981.00
2023-07-31T05:05:40.591Z,96968.38
2023-07-31T05:08:09.643Z,96966.25
2023-07-31T05:10:37.294Z,96966.88
2023-07-31T05:13:04.973Z,96965.94
2023-07-31T05:15:32.945Z,96977.03
2023-07-31T05:18:00.557Z,96971.78
2023-07-31T05:20:28.709Z,96973.00
2023-07-31T05:22:56.333Z,96970.53
2023-07-31T05:25:25.249Z,96972.44
2023-07-31T05:27:52.911Z,96978.31
2023-07-31T05:30:22.281Z,96989.81
2023-07-31T05:32:49.920Z,96983.09
2023-07-31T05:35:17.634Z,96986.53
2023-07-31T05:37:45.237Z,96982.75
2023-07-31T05:40:13.374Z,96987.41
2023-07-31T05:42:42.360Z,96990.28
2023-07-31T05:45:10.631Z,96983.81
2023-07-31T05:47:38.233Z,96982.69
2023-07-31T05:50:06.342Z,96991.03
2023-07-31T05:52:33.952Z,96980.19
2023-07-31T05:55:02.437Z,96995.97
2023-07-31T05:57:30.053Z,96999.16
2023-07-31T05:59:59.057Z,96991.19
2023-07-31T06:02:26.753Z,96976.63
2023-07-31T06:04:54.753Z,96978.25
2023-07-31T06:07:22.438Z,96973.13
2023-07-31T06:09:50.382Z,96972.06
2023-07-31T06:12:19.799Z,96981.47
2023-07-31T06:14:47.405Z,96966.97
2023-07-31T06:17:16.982Z,96970.16
2023-07-31T06:19:44.566Z,96972.25
2023-07-31T06:22:12.202Z,96975.22
2023-07-31T06:24:39.787Z,96978.44
2023-07-31T06:27:08.283Z,96968.88
2023-07-31T06:29:35.925Z,96962.38
2023-07-31T06:32:04.383Z,96963.06
2023-07-31T06:34:33.559Z,96967.34
2023-07-31T06:37:01.167Z,96963.50
2023-07-31T06:39:28.795Z,96967.81
2023-07-31T06:41:56.401Z,96969.44
2023-07-31T06:44:24.035Z,96973.41
2023-07-31T06:46:51.642Z,96973.50
2023-07-31T06:49:19.265Z,96978.31
2023-07-31T06:51:48.262Z,96971.91
2023-07-31T06:54:16.146Z,96958.16
2023-07-31T06:56:44.144Z,96954.16
2023-07-31T06:59:11.902Z,96953.59
2023-07-31T07:01:40.656Z,96944.56
2023-07-31T07:04:08.360Z,96936.50
2023-07-31T07:06:36.062Z,96935.34
2023-07-31T07:09:05.303Z,96940.28
2023-07-31T07:11:33.481Z,96934.47
2023-07-31T07:14:01.575Z,96927.97
2023-07-31T07:16:31.090Z,96924.50
2023-07-31T07:19:04.690Z,96928.22
2023-07-31T07:21:32.796Z,96930.94
2023-07-31T07:24:00.424Z,96925.06
2023-07-31T07:26:29.401Z,96922.34
2023-07-31T07:28:58.760Z,96919.47
2023-07-31T07:31:27.803Z,96930.25
2023-07-31T07:33:55.456Z,96927.13
2023-07-31T07:36:23.118Z,96929.06
2023-07-31T07:38:50.768Z,96934.28
2023-07-31T07:41:18.475Z,96940.44
2023-07-31T07:43:47.639Z,96944.63
2023-07-31T07:46:15.314Z,96941.66
2023-07-31T07:48:42.940Z,96935.09
2023-07-31T07:51:10.560Z,96939.22
2023-07-31T07:53:38.189Z,96944.28
2023-07-31T07:56:06.001Z,96947.88
2023-07-31T07:58:33.651Z,96946.06
2023-07-31T08:01:02.774Z,96955.56
2023-07-31T08:03:30.498Z,96953.75
2023-07-31T08:06:00.641Z,96945.81
2023-07-31T08:08:28.621Z,96950.75
2023-07-31T08:10:56.273Z,96946.75
2023-07-31T08:13:24.069Z,96932.00
2023-07-31T08:15:51.702Z,96928.63
2023-07-31T08:18:21.101Z,96920.03
2023-07-31T08:20:49.023Z,96915.78
2023-07-31T08:23:16.669Z,96920.09
2023-07-31T08:25:44.401Z,96914.56
2023-07-31T08:28:12.016Z,96909.59
2023-07-31T08:30:39.837Z,96921.84
2023-07-31T08:33:07.658Z,96928.13
2023-07-31T08:35:36.913Z,96921.66
2023-07-31T08:38:04.600Z,96916.56
2023-07-31T08:40:32.363Z,96911.31
2023-07-31T08:43:03.261Z,96919.47
2023-07-31T08:45:32.385Z,96915.25
2023-07-31T08:48:01.387Z,96917.69
2023-07-31T08:50:29.133Z,96906.81
2023-07-31T08:53:15.703Z,96893.38
2023-07-31T08:55:43.653Z,96894.69
2023-07-31T08:58:33.165Z,96896.25
2023-07-31T09:01:03.397Z,96904.81
2023-07-31T09:03:35.293Z,96903.28
2023-07-31T09:06:05.425Z,96891.09
2023-07-31T09:08:38.411Z,96890.44
2023-07-31T09:11:06.052Z,96891.63
2023-07-31T09:13:35.985Z,96883.31
2023-07-31T09:16:03.712Z,96884.94
2023-07-31T09:18:31.399Z,96886.94
2023-07-31T09:21:05.931Z,96869.53
2023-07-31T09:23:45.491Z,96870.75
2023-07-31T09:26:13.382Z,96858.75
2023-07-31T09:28:41.052Z,96865.72
2023-07-31T09:31:08.779Z,96861.72
2023-07-31T09:33:56.592Z,96873.38
2023-07-31T09:36:24.354Z,96873.78
2023-07-31T09:38:53.404Z,96884.66
2023-07-31T09:41:22.444Z,96888.09
2023-07-31T09:43:55.472Z,96887.69
2023-07-31T09:46:23.796Z,96864.53
2023-07-31T09:48:51.539Z,96864.88
2023-07-31T09:51:19.182Z,96859.06
2023-07-31T09:53:53.330Z,96856.50
2023-07-31T09:56:23.574Z,96861.09
2023-07-31T09:58:53.463Z,96862.88
2023-07-31T10:01:21.271Z,96857.75
2023-07-31T10:03:49.123Z,96853.69
2023-07-31T10:06:20.277Z,96836.72
2023-07-31T10:08:52.074Z,96838.28
2023-07-31T10:11:22.493Z,96839.84
2023-07-31T10:13:51.031Z,96833.28
2023-07-31T10:16:19.703Z,96835.22
2023-07-31T10:18:47.976Z,96827.09
2023-07-31T10:21:16.628Z,96812.00
2023-07-31T10:23:45.052Z,96816.66
2023-07-31T10:26:15.216Z,96806.53
2023-07-31T10:28:46.305Z,96798.84
2023-07-31T10:31:15.108Z,96794.13
2023-07-31T10:33:43.064Z,96788.66
2023-07-31T10:36:19.402Z,96797.56
2023-07-31T10:38:47.302Z,96792.16
2023-07-31T10:41:15.940Z,96786.28
2023-07-31T10:43:45.146Z,96776.34
2023-07-31T10:46:15.478Z,96768.88
2023-07-31T10:48:43.739Z,96774.16
2023-07-31T10:51:13.290Z,96772.28
2023-07-31T10:53:42.760Z,96769.19
2023-07-31T10:56:13.858Z,96766.88
2023-07-31T10:58:41.546Z,96761.91
2023-07-31T11:01:10.663Z,96756.81
2023-07-31T11:03:46.140Z,96747.41
2023-07-31T11:06:18.003Z,96728.22
2023-07-31T11:08:48.063Z,96739.78
2023-07-31T11:11:17.705Z,96727.38
2023-07-31T11:13:50.307Z,96726.81
2023-07-31T11:16:20.677Z,96730.50
2023-07-31T11:18:50.309Z,96722.44
2023-07-31T11:21:19.698Z,96722.00
2023-07-31T11:23:48.426Z,96722.00
2023-07-31T11:26:16.609Z,96723.56
2023-07-31T11:28:44.623Z,96723.81
2023-07-31T11:31:12.856Z,96717.66
2023-07-31T11:33:43.268Z,96730.50
2023-07-31T11:36:18.759Z,96738.19
2023-07-31T11:38:46.983Z,96717.44
2023-07-31T11:41:16.327Z,96730.50
2023-07-31T11:43:46.356Z,96720.72
2023-07-31T11:46:15.731Z,96717.50
2023-07-31T11:48:45.098Z,96712.84
2023-07-31T11:51:16.060Z,96718.38
2023-07-31T11:53:46.162Z,96715.81
2023-07-31T11:56:16.635Z,96712.97
2023-07-31T11:58:48.019Z,96711.22
2023-07-31T12:01:18.238Z,96717.41
2023-07-31T12:03:50.414Z,96708.13
2023-07-31T12:06:18.093Z,96706.84
2023-07-31T12:08:45.849Z,96699.88
2023-07-31T12:11:14.464Z,96691.47
2023-07-31T12:13:42.422Z,96681.88
2023-07-31T12:16:12.077Z,96678.34
2023-07-31T12:18:40.980Z,96668.66
2023-07-31T12:21:12.494Z,96666.69
2023-07-31T12:23:40.527Z,96666.28
2023-07-31T12:26:09.743Z,96668.09
2023-07-31T12:28:39.326Z,96658.78
2023-07-31T12:31:08.240Z,96650.28
2023-07-31T12:33:37.759Z,96658.06
2023-07-31T12:36:06.912Z,96652.66
2023-07-31T12:38:35.905Z,96656.47
2023-07-31T12:41:03.656Z,96649.13
2023-07-31T12:43:31.418Z,96640.00
2023-07-31T12:45:59.146Z,96640.53
2023-07-31T12:48:26.941Z,96633.63
2023-07-31T12:50:54.692Z,96628.53
2023-07-31T12:53:22.447Z,96632.47
2023-07-31T12:55:51.877Z,96630.84
2023-07-31T12:58:19.539Z,96616.94
2023-07-31T13:00:47.195Z,96618.22
2023-07-31T13:03:15.004Z,96604.19
2023-07-31T13:05:42.785Z,96591.94
2023-07-31T13:08:10.446Z,96595.81
2023-07-31T13:10:38.107Z,96595.94
2023-07-31T13:13:07.058Z,96593.47
2023-07-31T13:15:34.670Z,96599.22
2023-07-31T13:18:02.333Z,96590.69
2023-07-31T13:20:30.129Z,96580.53
2023-07-31T13:22:57.729Z,96577.25
2023-07-31T13:25:25.576Z,96568.72
2023-07-31T13:27:53.232Z,96565.03
2023-07-31T13:30:22.262Z,96572.22
2023-07-31T13:32:50.116Z,96558.28
2023-07-31T13:35:17.713Z,96566.22
2023-07-31T13:37:45.324Z,96574.91
2023-07-31T13:40:13.584Z,96576.44
2023-07-31T13:42:41.200Z,96573.25
2023-07-31T13:45:09.161Z,96570.50
2023-07-31T13:47:38.367Z,96566.06
2023-07-31T13:50:07.158Z,96563.53
2023-07-31T13:52:34.823Z,96557.56
2023-07-31T13:55:02.487Z,96554.75
2023-07-31T13:57:30.446Z,96554.41
2023-07-31T13:59:58.113Z,96555.44
2023-07-31T14:02:25.796Z,96552.31
2023-07-31T14:04:54.806Z,96558.19
2023-07-31T14:07:22.428Z,96553.41
2023-07-31T14:09:50.038Z,96550.06
2023-07-31T14:12:31.805Z,96548.78
2023-07-31T14:15:05.803Z,96551.47
2023-07-31T14:17:33.568Z,96549.88
2023-07-31T14:20:02.822Z,96554.22
2023-07-31T14:22:31.145Z,96558.44
2023-07-31T14:24:58.882Z,96547.63
2023-07-31T14:27:26.640Z,96535.97
2023-07-31T14:29:54.202Z,96538.16
2023-07-31T14:32:22.868Z,96538.16
2023-07-31T14:34:50.460Z,96538.00
2023-07-31T14:37:19.580Z,96533.34
2023-07-31T14:39:47.182Z,96530.94
2023-07-31T14:42:14.873Z,96527.38
2023-07-31T14:44:42.502Z,96528.13
2023-07-31T14:47:10.114Z,96523.50
2023-07-31T14:49:37.708Z,96526.56
2023-07-31T14:52:06.246Z,96518.69
2023-07-31T14:54:35.233Z,96516.88
2023-07-31T14:57:02.960Z,96512.91
2023-07-31T14:59:30.586Z,96513.88
2023-07-31T15:01:58.185Z,96514.81
2023-07-31T15:04:25.901Z,96514.81
2023-07-31T15:06:54.026Z,96509.69
2023-07-31T15:09:21.616Z,96506.84
2023-07-31T15:11:50.677Z,96495.84
2023-07-31T15:14:18.430Z,96501.63
2023-07-31T15:16:46.117Z,96496.59
2023-07-31T15:19:13.735Z,96498.97
2023-07-31T15:21:41.387Z,96490.72
2023-07-31T15:24:09.330Z,96485.91
2023-07-31T15:26:37.088Z,96480.19
2023-07-31T15:29:09.876Z,96483.22
2023-07-31T15:31:37.654Z,96475.97
2023-07-31T15:34:05.314Z,96471.00
2023-07-31T15:36:33.178Z,96465.72
2023-07-31T15:39:01.055Z,96464.63
2023-07-31T15:41:30.581Z,96473.56
2023-07-31T15:43:58.233Z,96471.34
2023-07-31T15:46:27.494Z,96461.97
2023-07-31T15:48:55.449Z,96459.75
2023-07-31T15:51:23.333Z,96463.72
2023-07-31T15:53:50.959Z,96455.34
2023-07-31T15:56:18.982Z,96450.19
2023-07-31T15:58:46.625Z,96450.28
2023-07-31T16:01:14.742Z,96450.78
2023-07-31T16:03:43.872Z,96445.31
2023-07-31T16:06:11.555Z,96447.34
2023-07-31T16:08:42.383Z,96444.69
2023-07-31T16:11:11.390Z,96437.50
2023-07-31T16:13:39.086Z,96432.22
2023-07-31T16:16:06.773Z,96435.97
2023-07-31T16:18:34.484Z,96437.22
2023-07-31T16:21:03.551Z,96428.81
2023-07-31T16:23:31.165Z,96423.88
2023-07-31T16:25:58.903Z,96424.72
2023-07-31T16:28:26.622Z,96422.16
2023-07-31T16:30:54.414Z,96416.13
2023-07-31T16:33:22.083Z,96425.69
2023-07-31T16:35:49.816Z,96422.16
2023-07-31T16:38:18.750Z,96434.81
2023-07-31T16:40:50.376Z,96421.53
2023-07-31T16:43:17.990Z,96418.66
2023-07-31T16:45:45.617Z,96415.94
2023-07-31T16:48:14.319Z,96417.53
2023-07-31T16:50:41.911Z,96424.00
2023-07-31T16:53:09.535Z,96412.25
2023-07-31T16:55:39.466Z,96418.31
2023-07-31T16:58:07.095Z,96414.22
2023-07-31T17:00:34.785Z,96412.03
2023-07-31T17:03:03.570Z,96410.06
2023-07-31T17:05:31.297Z,96402.09
2023-07-31T17:07:58.896Z,96390.28
2023-07-31T17:10:30.249Z,96394.94
2023-07-31T17:12:59.276Z,96385.34
2023-07-31T17:15:27.007Z,96385.75
2023-07-31T17:17:55.993Z,96378.25
2023-07-31T17:20:23.745Z,96377.78
2023-07-31T17:22:51.435Z,96376.44
2023-07-31T17:25:20.418Z,96381.34
2023-07-31T17:27:50.546Z,96382.06
2023-07-31T17:30:22.084Z,96382.19
2023-07-31T17:32:49.794Z,96387.81
2023-07-31T17:35:17.898Z,96373.88
2023-07-31T17:37:45.531Z,96376.09
2023-07-31T17:40:13.775Z,96379.59
2023-07-31T17:42:41.421Z,96371.63
2023-07-31T17:45:12.280Z,96372.78
2023-07-31T17:47:41.293Z,96368.81
2023-07-31T17:50:09.817Z,96363.94
2023-07-31T17:52:37.502Z,96357.78
2023-07-31T17:55:05.571Z,96357.38
2023-07-31T17:57:33.198Z,96365.03
2023-07-31T18:00:00.970Z,96356.84
2023-07-31T18:02:30.340Z,96361.03
2023-07-31T18:04:59.572Z,96365.19
2023-07-31T18:07:27.227Z,96365.94
2023-07-31T18:09:54.936Z,96360.72
2023-07-31T18:12:22.535Z,96366.81
2023-07-31T18:14:50.288Z,96369.00
2023-07-31T18:17:18.081Z,96356.44
2023-07-31T18:19:45.862Z,96355.63
2023-07-31T18:22:16.162Z,96360.50
2023-07-31T18:24:43.795Z,96366.34
2023-07-31T18:27:11.531Z,96368.16
2023-07-31T18:29:39.241Z,96373.34
2023-07-31T18:32:07.341Z,96370.25
2023-07-31T18:34:34.954Z,96362.41
2023-07-31T18:37:04.924Z,96349.81
2023-07-31T18:39:33.932Z,96353.44
2023-07-31T18:42:01.611Z,96347.78
2023-07-31T18:44:29.257Z,96354.53
2023-07-31T18:46:56.909Z,96356.94
2023-07-31T18:49:24.517Z,96355.91
2023-07-31T18:51:52.154Z,96365.34
2023-07-31T18:54:19.781Z,96369.72
2023-07-31T18:56:51.198Z,96361.66
2023-07-31T18:59:18.833Z,96362.75
2023-07-31T19:01:50.236Z,96362.09
2023-07-31T19:04:18.134Z,96356.75
2023-07-31T19:06:45.737Z,96362.31
2023-07-31T19:09:14.143Z,96363.63
2023-07-31T19:11:42.917Z,96364.09
2023-07-31T19:14:14.762Z,96359.06
2023-07-31T19:16:43.390Z,96355.66
2023-07-31T19:19:11.225Z,96358.06
2023-07-31T19:21:38.859Z,96359.66
2023-07-31T19:24:06.615Z,96368.19
2023-07-31T19:26:35.646Z,96374.41
2023-07-31T19:29:03.350Z,96368.16
2023-07-31T19:31:32.344Z,96370.47
2023-07-31T19:34:00.505Z,96362.41
2023-07-31T19:36:28.247Z,96358.16
2023-07-31T19:38:56.878Z,96353.50
2023-07-31T19:41:24.521Z,96352.00
2023-07-31T19:43:52.257Z,96352.75
2023-07-31T19:46:19.993Z,96353.53
2023-07-31T19:48:49.005Z,96355.88
2023-07-31T19:51:16.742Z,96355.16
2023-07-31T19:53:44.419Z,96356.31
2023-07-31T19:56:12.050Z,96351.69
2023-07-31T19:58:41.263Z,96350.19
2023-07-31T20:01:09.005Z,96349.00
2023-07-31T20:03:36.763Z,96345.09
2023-07-31T20:06:05.832Z,96352.47
2023-07-31T20:08:33.508Z,96348.63
2023-07-31T20:11:01.367Z,96351.03
2023-07-31T20:13:31.601Z,96343.75
2023-07-31T20:15:59.353Z,96341.00
2023-07-31T20:18:26.987Z,96331.84
2023-07-31T20:20:54.663Z,96336.84
2023-07-31T20:23:37.074Z,96336.84
2023-07-31T20:26:09.918Z,96331.44
2023-07-31T20:28:37.767Z,96331.38
2023-07-31T20:31:05.749Z,96321.75
2023-07-31T20:33:33.586Z,96319.78
2023-07-31T20:36:05.596Z,96314.00
2023-07-31T20:38:34.572Z,96312.94
2023-07-31T20:41:02.479Z,96315.31
2023-07-31T20:43:30.146Z,96313.03
2023-07-31T20:45:57.868Z,96312.22
2023-07-31T20:48:25.702Z,96304.50
2023-07-31T20:50:53.926Z,96307.25
2023-07-31T20:53:21.654Z,96300.72
2023-07-31T20:55:50.666Z,96300.72
2023-07-31T20:58:18.299Z,96304.19
2023-07-31T21:00:46.543Z,96295.31
2023-07-31T21:03:14.460Z,96300.50
2023-07-31T21:05:50.804Z,96294.34
2023-07-31T21:08:18.450Z,96303.91
2023-07-31T21:10:46.124Z,96298.50
2023-07-31T21:13:15.090Z,96292.72
2023-07-31T21:15:43.058Z,96296.97
2023-07-31T21:18:10.889Z,96300.06
2023-07-31T21:20:39.290Z,96295.81
2023-07-31T21:23:09.201Z,96286.19
2023-07-31T21:25:37.465Z,96275.38
2023-07-31T21:28:05.407Z,96283.09
2023-07-31T21:30:35.346Z,96283.97
2023-07-31T21:33:02.939Z,96291.31
2023-07-31T21:35:30.727Z,96297.13
2023-07-31T21:37:58.667Z,96296.34
2023-07-31T21:40:26.847Z,96292.06
2023-07-31T21:42:54.920Z,96285.53
2023-07-31T21:45:23.457Z,96277.81
2023-07-31T21:47:52.703Z,96271.28
2023-07-31T21:50:20.398Z,96275.94
2023-07-31T21:52:48.047Z,96268.66
2023-07-31T21:55:16.491Z,96270.16
2023-07-31T21:57:44.104Z,96270.16
2023-07-31T22:00:13.071Z,96268.63
2023-07-31T22:02:40.822Z,96260.13
2023-07-31T22:05:10.134Z,96255.16
2023-07-31T22:07:37.730Z,96258.63
2023-07-31T22:10:06.099Z,96264.81
2023-07-31T22:12:33.703Z,96245.13
2023-07-31T22:15:01.511Z,96249.38
2023-07-31T22:17:29.328Z,96237.81
2023-07-31T22:19:56.957Z,96230.91
2023-07-31T22:22:25.944Z,96233.19
2023-07-31T22:24:53.581Z,96231.66
2023-07-31T22:27:21.221Z,96236.66
2023-07-31T22:29:48.817Z,96234.34
2023-07-31T22:32:16.454Z,96223.91
2023-07-31T22:34:44.034Z,96235.88
2023-07-31T22:37:11.658Z,96237.03
2023-07-31T22:39:40.608Z,96227.00
2023-07-31T22:42:08.417Z,96224.75
2023-07-31T22:44:36.034Z,96218.16
2023-07-31T22:47:04.763Z,96219.31
2023-07-31T22:49:33.621Z,96223.94
2023-07-31T22:52:01.297Z,96216.28
2023-07-31T22:54:28.995Z,96206.28
2023-07-31T22:56:57.962Z,96202.44
2023-07-31T22:59:25.656Z,96205.53
2023-07-31T23:01:53.427Z,96196.28
2023-07-31T23:04:21.079Z,96199.00
2023-07-31T23:06:50.589Z,96194.38
2023-07-31T23:09:18.199Z,96185.50
2023-07-31T23:11:45.870Z,96183.56
2023-07-31T23:14:14.786Z,96177.81
2023-07-31T23:16:42.636Z,96160.44
2023-07-31T23:19:10.534Z,96153.56
2023-07-31T23:21:38.333Z,96157.03
2023-07-31T23:24:06.012Z,96158.19
2023-07-31T23:26:33.850Z,96160.47
2023-07-31T23:29:02.289Z,96151.63
2023-07-31T23:31:31.317Z,96143.16
2023-07-31T23:33:59.958Z,96130.03
2023-07-31T23:36:27.521Z,96130.78
2023-07-31T23:38:55.115Z,96125.41
2023-07-31T23:41:22.738Z,96111.53
2023-07-31T23:43:50.339Z,96108.44
2023-07-31T23:46:17.993Z,96096.88
2023-07-31T23:48:47.001Z,96094.94
2023-07-31T23:51:14.623Z,96092.25
2023-07-31T23:53:42.435Z,96095.31
2023-07-31T23:56:10.336Z,96089.16
2023-07-31T23:58:38.035Z,96078.75
